Αρχική σελίδα
METAR-TAF:

METAR-TAF

Αεροδρόμια :

Καράκας, Βενεζουέλα

γεωγραφικό πλάτος: 10-36N, γεωγραφικό μήκος: 066-59W, υψόμετρο: 43 μ

Παρών καιρός

Η αναφορά έγινε 32 λεπτά πριν, στις 18:00 UTC
Ήπιος άνεμος
Θερμοκρασία 31°C
Υγρασία 52%
Πίεση 1011 hPa
Ορατότητα 10 χλμ και άνω
Λίγα νέφη σε ύψος 1600 πόδια

METAR: SVMI 191800Z 00000KT 9999 FEW016 31/20 Q1011

Χρόνος: 14:32 (18:32 UTC)

Πρόγνωση Καιρού

Η αναφορά έγινε 2 ώρες και 32 λεπτά πριν, στις 16:00 UTC
Η πρόγνωση ισχύει από τις 19 στις 18 UTC έως τις 20 στις 18 UTC
Άνεμος 1 kt από BA
Ορατότητα 10 χλμ και άνω
Λίγα νέφη σε ύψος 1600 πόδια
Διάσπαρτα νέφη σε ύψος 10000 πόδια
Καθιστάμενος
από 19 στις 18 UTC έως τις 19 στις 22 UTC
Άνεμος 4 kt από Α
Λίγα νέφη σε ύψος 1300 πόδια
Διάσπαρτα νέφη σε ύψος 7000 πόδια

TAF: SVMI 191600Z 1918/2018 05001KT 9999 FEW016 SCT100 TX32/18Z TN24/08Z BECMG 1918/1922 09004KT FEW013 SCT070

Μετεωρολογικές αναφορές και προγνώσεις για περισσότερα από 4000 αεροδρόμια (δελτία METAR και TAF).

Οι διαθέσιμοι σταθμοί απεικονίζονται στο χάρτη με κίτρινες και κόκκινες κουκκίδες.

Μετακινήστε το ποντίκι πάνω από τις κουκκίδες για να δείτε το όνομα του σταθμού.

Στη συνέχεια, κάντε κλικ για να δείτε τις μετεωρολογικές αναφορές και τις προγνώσεις καιρού.

Για να αλλάξετε το χάρτη: κάντε κλικ στα πράσινα κουμπιά με τον μαύρο σταυρό για να ζουμάρετε, στο πράσινο κουμπί με την παύλα για να αφαιρέσετε το ζουμ ή στα πράσινα βέλη για να αντιπαραβάλλετε χάρτες.


METAR-TAF: